Boussu, Belgium
Current Conditions -  °F | °C
As of 6:25 AM on Wednesday 26 Nov 2014 (Local Time) from EBCV Reporting Station
Scattered Clouds Scattered Clouds  
Wind Chill: 38°   Ceiling: Unl
Heat Index: 41°   Visibility: 3mi
Dew Point: 41°   Wind: 5mph
Humidity: 100%   Direction: 70°ENE
Pressure: 29.91"   Gusts: NA
Location:  50.43°N, 3.79°E
Report Text: EBCV 260525Z AUTO 07004KT 4900 FEW100/// SCT160/// 05/05 Q1013 GRN
Loading
Personal Weather Stations






























Interactive Weather Map New forecast layout! Learn more

10-Day Weather Forecast

Advertisements
Track Severe Weather on mobile